createdAt,value
2019-03-03T00:01:41.741Z,7.00
2019-03-03T00:04:13.079Z,6.85
2019-03-03T00:06:42.764Z,6.75
2019-03-03T00:09:12.410Z,6.80
2019-03-03T00:11:42.015Z,5.85
2019-03-03T00:14:11.661Z,6.60
2019-03-03T00:16:41.276Z,6.62
2019-03-03T00:19:10.986Z,5.97
2019-03-03T00:21:40.656Z,6.03
2019-03-03T00:24:10.318Z,6.62
2019-03-03T00:26:39.934Z,6.05
2019-03-03T00:29:09.565Z,5.90
2019-03-03T00:31:40.429Z,5.65
2019-03-03T00:34:10.072Z,5.35
2019-03-03T00:36:59.770Z,5.28
2019-03-03T00:39:42.936Z,5.30
2019-03-03T00:42:26.431Z,4.78
2019-03-03T00:45:06.624Z,5.20
2019-03-03T00:47:37.895Z,5.17
2019-03-03T00:50:12.420Z,5.10
2019-03-03T00:52:56.066Z,4.90
2019-03-03T00:55:27.402Z,5.03
2019-03-03T00:58:04.253Z,5.12
2019-03-03T01:00:35.577Z,4.70
2019-03-03T01:03:16.078Z,5.03
2019-03-03T01:05:56.717Z,5.17
2019-03-03T01:08:28.065Z,5.35
2019-03-03T01:11:02.234Z,5.65
2019-03-03T01:13:42.517Z,4.80
2019-03-03T01:16:16.814Z,5.40
2019-03-03T01:18:59.890Z,5.42
2019-03-03T01:21:31.213Z,5.42
2019-03-03T01:24:11.570Z,5.35
2019-03-03T01:26:43.229Z,4.80
2019-03-03T01:29:12.878Z,5.17
2019-03-03T01:31:42.565Z,4.60
2019-03-03T01:34:12.200Z,5.03
2019-03-03T01:36:41.821Z,4.97
2019-03-03T01:39:11.816Z,4.60
2019-03-03T01:41:41.428Z,5.22
2019-03-03T01:44:11.069Z,4.80
2019-03-03T01:46:40.988Z,4.95
2019-03-03T01:49:10.638Z,4.53
2019-03-03T01:51:40.257Z,4.90
2019-03-03T01:54:09.905Z,4.90
2019-03-03T01:56:39.614Z,5.03
2019-03-03T01:59:09.266Z,5.15
2019-03-03T02:01:38.893Z,5.47
2019-03-03T02:04:08.535Z,5.47
2019-03-03T02:06:38.246Z,4.95
2019-03-03T02:09:10.999Z,5.28
2019-03-03T02:11:40.776Z,5.40
2019-03-03T02:14:10.489Z,5.53
2019-03-03T02:16:40.166Z,5.10
2019-03-03T02:19:09.805Z,5.15
2019-03-03T02:21:39.421Z,5.50
2019-03-03T02:24:09.142Z,4.85
2019-03-03T02:26:38.957Z,5.83
2019-03-03T02:29:08.665Z,5.58
2019-03-03T02:31:38.325Z,5.33
2019-03-03T02:34:07.940Z,5.75
2019-03-03T02:36:37.643Z,4.90
2019-03-03T02:39:12.824Z,5.25
2019-03-03T02:41:42.515Z,5.40
2019-03-03T02:44:12.157Z,5.53
2019-03-03T02:46:41.895Z,4.97
2019-03-03T02:49:11.534Z,5.10
2019-03-03T02:51:41.165Z,5.53
2019-03-03T02:54:10.870Z,5.03
2019-03-03T02:56:40.496Z,5.50
2019-03-03T02:59:10.134Z,4.83
2019-03-03T03:01:41.405Z,4.92
2019-03-03T03:04:11.116Z,5.65
2019-03-03T03:07:00.402Z,5.78
2019-03-03T03:09:31.754Z,5.17
2019-03-03T03:12:19.601Z,5.30
2019-03-03T03:14:50.959Z,5.40
2019-03-03T03:17:22.259Z,5.42
2019-03-03T03:19:59.667Z,4.70
2019-03-03T03:22:30.934Z,5.08
2019-03-03T03:25:14.069Z,5.00
2019-03-03T03:27:48.093Z,5.30
2019-03-03T03:30:35.898Z,4.70
2019-03-03T03:33:09.942Z,5.30
2019-03-03T03:35:41.221Z,4.37
2019-03-03T03:38:24.484Z,5.20
2019-03-03T03:41:13.892Z,4.83
2019-03-03T03:43:47.738Z,4.50
2019-03-03T03:46:19.025Z,4.33
2019-03-03T03:48:50.326Z,4.80
2019-03-03T03:51:33.600Z,4.30
2019-03-03T03:54:07.949Z,4.83
2019-03-03T03:56:54.918Z,4.67
2019-03-03T03:59:28.746Z,3.92
2019-03-03T04:02:02.846Z,3.98
2019-03-03T04:04:37.137Z,3.95
2019-03-03T04:07:11.220Z,3.90
2019-03-03T04:09:45.779Z,4.10
2019-03-03T04:12:33.340Z,3.90
2019-03-03T04:15:13.704Z,3.80
2019-03-03T04:17:44.960Z,3.90
2019-03-03T04:20:16.615Z,3.67
2019-03-03T04:22:53.903Z,3.60
2019-03-03T04:25:27.966Z,3.45
2019-03-03T04:27:59.234Z,2.98
2019-03-03T04:30:39.603Z,3.37
2019-03-03T04:33:10.864Z,3.00
2019-03-03T04:35:50.845Z,3.10
2019-03-03T04:38:22.111Z,2.90
2019-03-03T04:41:08.666Z,3.25
2019-03-03T04:43:48.794Z,3.08
2019-03-03T04:49:15.844Z,3.37
2019-03-03T04:52:03.515Z,3.62
2019-03-03T04:54:43.781Z,3.25
2019-03-03T04:57:24.432Z,3.37
2019-03-03T05:00:04.540Z,3.52
2019-03-03T05:02:41.782Z,3.60
2019-03-03T05:05:13.121Z,3.70
2019-03-03T05:07:46.885Z,3.50
2019-03-03T05:10:18.217Z,3.80
2019-03-03T05:12:49.525Z,3.83
2019-03-03T05:15:23.324Z,3.25
2019-03-03T05:18:03.620Z,3.83
2019-03-03T05:20:49.820Z,3.37
2019-03-03T05:23:19.518Z,3.55
2019-03-03T05:25:49.129Z,3.30
2019-03-03T05:28:18.778Z,3.45
2019-03-03T05:30:48.412Z,3.55
2019-03-03T05:33:18.068Z,3.62
2019-03-03T05:35:47.681Z,3.75
2019-03-03T05:38:17.320Z,3.62
2019-03-03T05:40:46.959Z,3.80
2019-03-03T05:43:16.620Z,4.37
2019-03-03T05:45:46.230Z,3.85
2019-03-03T05:48:15.865Z,3.33
2019-03-03T05:50:45.558Z,3.70
2019-03-03T05:53:15.201Z,3.30
2019-03-03T05:55:44.823Z,4.00
2019-03-03T05:58:14.477Z,3.70
2019-03-03T06:00:44.089Z,4.15
2019-03-03T06:03:13.817Z,4.42
2019-03-03T06:05:43.432Z,4.33
2019-03-03T06:08:13.069Z,4.20
2019-03-03T06:10:42.691Z,3.80
2019-03-03T06:13:12.331Z,3.62
2019-03-03T06:15:41.942Z,4.40
2019-03-03T06:18:11.593Z,3.80
2019-03-03T06:20:41.426Z,4.37
2019-03-03T06:23:11.529Z,4.05
2019-03-03T06:25:41.411Z,4.12
2019-03-03T06:28:11.027Z,4.30
2019-03-03T06:30:40.720Z,4.42
2019-03-03T06:33:10.380Z,4.20
2019-03-03T06:35:40.007Z,4.05
2019-03-03T06:38:09.649Z,4.33
2019-03-03T06:40:39.273Z,4.47
2019-03-03T06:43:08.921Z,3.85
2019-03-03T06:45:38.608Z,4.37
2019-03-03T06:48:08.245Z,4.25
2019-03-03T06:50:38.016Z,4.10
2019-03-03T06:53:07.694Z,4.83
2019-03-03T06:55:37.309Z,3.80
2019-03-03T06:58:07.146Z,3.92
2019-03-03T07:00:36.833Z,3.67
2019-03-03T07:03:06.495Z,3.60
2019-03-03T07:05:36.193Z,4.00
2019-03-03T07:08:06.149Z,3.27
2019-03-03T07:10:36.325Z,3.33
2019-03-03T07:13:06.501Z,3.85
2019-03-03T07:15:36.483Z,3.50
2019-03-03T07:18:06.192Z,3.65
2019-03-03T07:20:38.434Z,3.10
2019-03-03T07:23:08.283Z,3.83
2019-03-03T07:25:37.967Z,3.45
2019-03-03T07:28:07.626Z,3.27
2019-03-03T07:30:37.295Z,3.52
2019-03-03T07:33:09.194Z,4.37
2019-03-03T07:35:38.818Z,3.45
2019-03-03T07:38:08.546Z,3.65
2019-03-03T07:40:38.415Z,3.60
2019-03-03T07:43:08.209Z,3.72
2019-03-03T07:45:37.905Z,3.17
2019-03-03T07:48:07.726Z,3.12
2019-03-03T07:50:37.434Z,3.10
2019-03-03T07:53:07.277Z,3.10
2019-03-03T07:55:37.137Z,3.10
2019-03-03T07:58:07.793Z,3.17
2019-03-03T08:00:37.645Z,3.20
2019-03-03T08:03:26.738Z,3.50
2019-03-03T08:05:56.477Z,3.40
2019-03-03T08:08:26.195Z,3.40
2019-03-03T08:10:55.949Z,3.00
2019-03-03T08:13:25.794Z,2.80
2019-03-03T08:15:55.941Z,2.67
2019-03-03T08:18:25.631Z,3.00
2019-03-03T08:20:55.246Z,3.25
2019-03-03T08:23:25.616Z,3.10
2019-03-03T08:25:55.343Z,3.35
2019-03-03T08:28:25.414Z,3.12
2019-03-03T08:30:55.083Z,3.08
2019-03-03T08:33:24.873Z,3.25
2019-03-03T08:35:54.591Z,3.00
2019-03-03T08:38:24.219Z,3.37
2019-03-03T08:40:53.890Z,3.47
2019-03-03T08:43:27.882Z,3.52
2019-03-03T08:46:05.174Z,2.87
2019-03-03T08:48:42.217Z,3.10
2019-03-03T08:51:22.225Z,3.10
2019-03-03T08:53:53.533Z,3.25
2019-03-03T08:56:30.723Z,3.20
2019-03-03T08:59:02.069Z,3.52
2019-03-03T09:01:51.754Z,3.17
2019-03-03T09:04:23.117Z,3.40
2019-03-03T09:07:10.724Z,3.20
2019-03-03T09:10:00.347Z,3.20
2019-03-03T09:12:47.908Z,3.27
2019-03-03T09:15:36.017Z,3.27
2019-03-03T09:18:23.742Z,3.10
2019-03-03T09:21:03.916Z,2.83
2019-03-03T09:23:51.768Z,3.30
2019-03-03T09:26:23.158Z,2.90
2019-03-03T09:29:12.669Z,3.10
2019-03-03T09:32:00.198Z,2.77
2019-03-03T09:34:48.078Z,3.00
2019-03-03T09:37:28.400Z,2.97
2019-03-03T09:40:08.793Z,2.90
2019-03-03T09:42:32.948Z,3.20
2019-03-03T09:45:16.324Z,2.83
2019-03-03T09:47:47.792Z,3.00
2019-03-03T09:50:22.301Z,3.03
2019-03-03T09:52:56.649Z,2.73
2019-03-03T09:55:30.629Z,2.83
2019-03-03T09:58:18.742Z,3.10
2019-03-03T10:00:50.107Z,3.03
2019-03-03T10:03:25.402Z,3.20
2019-03-03T10:06:13.675Z,2.90
2019-03-03T10:08:45.048Z,3.63
2019-03-03T10:11:22.469Z,3.17
2019-03-03T10:14:10.178Z,3.00
2019-03-03T10:16:41.658Z,3.13
2019-03-03T10:19:13.046Z,3.37
2019-03-03T10:21:53.209Z,3.00
2019-03-03T10:24:30.749Z,3.50
2019-03-03T10:27:11.619Z,3.37
2019-03-03T10:29:43.353Z,3.13
2019-03-03T10:32:20.711Z,3.30
2019-03-03T10:34:51.958Z,3.20
2019-03-03T10:37:23.310Z,3.53
2019-03-03T10:39:54.869Z,3.60
2019-03-03T10:42:28.638Z,3.17
2019-03-03T10:44:59.978Z,3.30
2019-03-03T10:47:43.969Z,3.23
2019-03-03T10:50:18.872Z,3.10
2019-03-03T10:52:50.166Z,3.10
2019-03-03T10:55:38.000Z,3.03
2019-03-03T10:58:09.466Z,2.77
2019-03-03T11:00:43.781Z,3.00
2019-03-03T11:03:21.804Z,3.00
2019-03-03T11:05:53.601Z,3.10
2019-03-03T11:08:43.802Z,3.20
2019-03-03T11:11:32.655Z,2.90
2019-03-03T11:14:23.606Z,2.97
2019-03-03T11:16:56.536Z,2.87
2019-03-03T11:19:40.607Z,2.70
2019-03-03T11:22:12.438Z,2.87
2019-03-03T11:24:46.630Z,2.87
2019-03-03T11:27:33.035Z,3.00
2019-03-03T11:30:05.047Z,3.07
2019-03-03T11:32:52.826Z,2.73
2019-03-03T11:35:33.242Z,2.93
2019-03-03T11:38:07.594Z,2.60
2019-03-03T11:40:39.186Z,2.90
2019-03-03T11:43:10.864Z,2.90
2019-03-03T11:45:42.247Z,2.70
2019-03-03T11:48:16.737Z,2.60
2019-03-03T11:50:54.334Z,2.60
2019-03-03T11:53:26.009Z,3.00
2019-03-03T11:56:06.816Z,2.60
2019-03-03T11:58:40.903Z,2.50
2019-03-03T12:01:27.353Z,2.60
2019-03-03T12:03:58.716Z,2.53
2019-03-03T12:06:30.104Z,2.73
2019-03-03T12:09:10.631Z,2.53
2019-03-03T12:11:48.042Z,2.27
2019-03-03T12:14:22.109Z,2.67
2019-03-03T12:16:56.401Z,2.57
2019-03-03T12:19:33.596Z,2.53
2019-03-03T12:22:05.141Z,2.60
2019-03-03T12:24:45.644Z,2.60
2019-03-03T12:27:20.029Z,2.43
2019-03-03T12:29:57.611Z,2.27
2019-03-03T12:32:31.993Z,2.30
2019-03-03T12:35:03.525Z,2.60
2019-03-03T12:37:40.614Z,2.77
2019-03-03T12:40:29.733Z,2.60
2019-03-03T12:43:10.288Z,2.30
2019-03-03T12:45:56.602Z,2.73
2019-03-03T12:48:27.893Z,2.40
2019-03-03T12:51:02.305Z,2.67
2019-03-03T12:53:34.135Z,2.70
2019-03-03T12:56:21.502Z,2.50
2019-03-03T12:58:53.026Z,2.30
2019-03-03T13:01:33.810Z,2.40
2019-03-03T13:04:20.160Z,2.77
2019-03-03T13:07:09.662Z,2.50
2019-03-03T13:09:50.062Z,2.63
2019-03-03T13:12:29.107Z,2.63
2019-03-03T13:15:09.359Z,2.70
2019-03-03T13:17:47.966Z,2.43
2019-03-03T13:20:16.902Z,2.60
2019-03-03T13:22:51.022Z,3.07
2019-03-03T13:25:28.170Z,2.87
2019-03-03T13:28:05.511Z,2.80
2019-03-03T13:30:36.879Z,3.17
2019-03-03T13:33:14.321Z,2.80
2019-03-03T13:35:55.785Z,2.77
2019-03-03T13:38:29.758Z,2.73
2019-03-03T13:41:01.057Z,2.63
2019-03-03T13:43:30.680Z,2.50
2019-03-03T13:46:00.377Z,2.47
2019-03-03T13:48:30.002Z,2.80
2019-03-03T13:50:59.735Z,2.40
2019-03-03T13:53:29.341Z,2.90
2019-03-03T13:55:59.064Z,2.87
2019-03-03T13:58:28.832Z,2.70
2019-03-03T14:00:58.938Z,2.90
2019-03-03T14:03:28.563Z,2.60
2019-03-03T14:05:58.222Z,2.73
2019-03-03T14:08:27.912Z,2.70
2019-03-03T14:10:57.559Z,2.33
2019-03-03T14:13:27.199Z,2.60
2019-03-03T14:15:56.943Z,2.73
2019-03-03T14:18:26.577Z,2.60
2019-03-03T14:20:56.229Z,2.20
2019-03-03T14:23:25.866Z,2.40
2019-03-03T14:25:55.514Z,3.13
2019-03-03T14:28:25.153Z,2.80
2019-03-03T14:30:54.809Z,2.63
2019-03-03T14:33:24.430Z,2.20
2019-03-03T14:35:54.085Z,2.33
2019-03-03T14:38:23.714Z,2.40
2019-03-03T14:40:53.379Z,2.60
2019-03-03T14:43:23.151Z,2.50
2019-03-03T14:45:52.801Z,2.57
2019-03-03T14:48:22.434Z,2.50
2019-03-03T14:50:52.085Z,2.20
2019-03-03T14:53:21.709Z,2.13
2019-03-03T14:55:51.766Z,2.27
2019-03-03T14:58:21.373Z,2.00
2019-03-03T15:00:51.090Z,2.40
2019-03-03T15:03:20.718Z,2.30
2019-03-03T15:05:50.374Z,2.17
2019-03-03T15:08:20.006Z,2.00
2019-03-03T15:10:49.801Z,2.00
2019-03-03T15:13:19.507Z,2.00
2019-03-03T15:15:49.176Z,2.27
2019-03-03T15:18:18.866Z,2.50
2019-03-03T15:20:48.587Z,2.30
2019-03-03T15:23:18.277Z,2.40
2019-03-03T15:25:47.936Z,2.43
2019-03-03T15:28:17.712Z,2.40
2019-03-03T15:30:47.574Z,2.00
2019-03-03T15:33:17.201Z,1.80
2019-03-03T15:35:47.049Z,2.37
2019-03-03T15:38:16.814Z,2.40
2019-03-03T15:40:46.462Z,2.50
2019-03-03T15:43:16.293Z,2.73
2019-03-03T15:45:46.185Z,2.60
2019-03-03T15:48:15.916Z,2.37
2019-03-03T15:50:46.171Z,1.83
2019-03-03T15:53:15.852Z,1.80
2019-03-03T15:55:45.784Z,1.73
2019-03-03T15:58:15.534Z,1.70
2019-03-03T16:00:45.365Z,1.60
2019-03-03T16:03:15.271Z,1.40
2019-03-03T16:05:44.956Z,1.30
2019-03-03T16:08:14.839Z,1.50
2019-03-03T16:10:44.551Z,1.40
2019-03-03T16:13:14.402Z,1.32
2019-03-03T16:15:44.218Z,1.40
2019-03-03T16:18:14.027Z,1.43
2019-03-03T16:20:44.045Z,1.52
2019-03-03T16:23:13.874Z,1.50
2019-03-03T16:25:43.906Z,1.27
2019-03-03T16:28:13.575Z,1.57
2019-03-03T16:30:43.441Z,1.40
2019-03-03T16:33:20.624Z,1.50
2019-03-03T16:35:45.002Z,1.50
2019-03-03T16:38:14.665Z,1.12
2019-03-03T16:40:46.067Z,1.40
2019-03-03T16:43:15.649Z,1.40
2019-03-03T16:45:45.325Z,1.40
2019-03-03T16:48:15.117Z,1.70
2019-03-03T16:50:44.744Z,1.52
2019-03-03T16:53:14.783Z,1.50
2019-03-03T16:55:44.527Z,1.40
2019-03-03T16:58:14.441Z,1.55
2019-03-03T17:00:44.145Z,2.40
2019-03-03T17:03:13.815Z,2.33
2019-03-03T17:05:43.836Z,2.10
2019-03-03T17:08:13.494Z,2.25
2019-03-03T17:10:43.257Z,2.77
2019-03-03T17:13:12.978Z,2.65
2019-03-03T17:15:42.649Z,2.35
2019-03-03T17:18:12.346Z,2.52
2019-03-03T17:20:42.115Z,2.33
2019-03-03T17:23:11.891Z,2.20
2019-03-03T17:25:41.589Z,2.20
2019-03-03T17:28:11.263Z,2.20
2019-03-03T17:30:40.929Z,2.25
2019-03-03T17:33:10.585Z,2.08
2019-03-03T17:35:40.306Z,2.12
2019-03-03T17:38:10.029Z,2.25
2019-03-03T17:40:39.779Z,2.30
2019-03-03T17:43:09.474Z,1.80
2019-03-03T17:45:39.110Z,1.80
2019-03-03T17:48:08.772Z,1.85
2019-03-03T17:50:38.407Z,1.50
2019-03-03T17:53:08.049Z,1.75
2019-03-03T17:55:37.687Z,1.82
2019-03-03T17:58:07.327Z,2.10
2019-03-03T18:00:38.701Z,2.10
2019-03-03T18:03:08.413Z,2.10
2019-03-03T18:05:38.126Z,2.17
2019-03-03T18:08:07.769Z,2.00
2019-03-03T18:10:37.396Z,1.98
2019-03-03T18:13:08.080Z,1.87
2019-03-03T18:15:37.951Z,2.00
2019-03-03T18:18:07.806Z,2.40
2019-03-03T18:20:37.423Z,2.67
2019-03-03T18:23:07.154Z,2.77
2019-03-03T18:25:36.838Z,3.15
2019-03-03T18:28:06.567Z,2.40
2019-03-03T18:30:36.359Z,2.90
2019-03-03T18:33:25.346Z,2.30
2019-03-03T18:35:54.974Z,2.12
2019-03-03T18:38:25.906Z,2.95
2019-03-03T18:40:55.533Z,2.83
2019-03-03T18:43:25.426Z,3.00
2019-03-03T18:45:55.048Z,2.40
2019-03-03T18:48:24.758Z,1.80
2019-03-03T18:50:54.397Z,2.00
2019-03-03T18:53:24.026Z,2.00
2019-03-03T18:55:53.829Z,2.10
2019-03-03T18:58:23.461Z,4.10
2019-03-03T19:00:53.214Z,4.22
2019-03-03T19:03:22.952Z,3.40
2019-03-03T19:05:55.750Z,3.40
2019-03-03T19:08:23.815Z,2.55
2019-03-03T19:10:53.610Z,2.35
2019-03-03T19:13:23.225Z,2.10
2019-03-03T19:15:52.943Z,2.27
2019-03-03T19:18:22.634Z,1.90
2019-03-03T19:20:52.281Z,1.95
2019-03-03T19:23:21.960Z,2.30
2019-03-03T19:25:51.600Z,2.20
2019-03-03T19:28:21.249Z,1.87
2019-03-03T19:30:50.881Z,1.90
2019-03-03T19:33:26.375Z,1.75
2019-03-03T19:35:56.096Z,1.70
2019-03-03T19:38:25.778Z,2.02
2019-03-03T19:40:55.422Z,2.70
2019-03-03T19:43:25.376Z,1.80
2019-03-03T19:46:00.862Z,1.72
2019-03-03T19:48:30.647Z,2.00
2019-03-03T19:51:00.429Z,2.45
2019-03-03T19:53:30.114Z,2.62
2019-03-03T19:55:59.778Z,2.40
2019-03-03T19:58:29.396Z,2.20
2019-03-03T20:00:59.175Z,2.40
2019-03-03T20:03:28.927Z,2.60
2019-03-03T20:05:58.595Z,2.10
2019-03-03T20:08:28.219Z,2.42
2019-03-03T20:10:57.928Z,2.35
2019-03-03T20:13:27.627Z,2.30
2019-03-03T20:15:57.350Z,2.50
2019-03-03T20:18:46.527Z,2.30
2019-03-03T20:21:16.242Z,2.30
2019-03-03T20:23:45.865Z,2.02
2019-03-03T20:26:15.574Z,1.80
2019-03-03T20:28:45.271Z,2.10
2019-03-03T20:31:15.029Z,1.95
2019-03-03T20:33:44.649Z,2.20
2019-03-03T20:36:14.346Z,2.60
2019-03-03T20:38:43.909Z,2.27
2019-03-03T20:41:13.554Z,2.22
2019-03-03T20:43:43.179Z,2.10
2019-03-03T20:46:12.890Z,2.02
2019-03-03T20:48:42.517Z,2.17
2019-03-03T20:51:12.155Z,3.72
2019-03-03T20:53:41.773Z,3.25
2019-03-03T20:56:11.464Z,3.20
2019-03-03T20:58:41.054Z,3.42
2019-03-03T21:01:10.693Z,2.55
2019-03-03T21:03:40.304Z,2.20
2019-03-03T21:06:09.962Z,2.00
2019-03-03T21:08:39.586Z,2.62
2019-03-03T21:11:09.293Z,2.27
2019-03-03T21:13:38.910Z,2.75
2019-03-03T21:16:08.772Z,2.12
2019-03-03T21:18:38.392Z,2.80
2019-03-03T21:21:08.025Z,2.90
2019-03-03T21:23:37.678Z,6.35
2019-03-03T21:26:07.321Z,8.60
2019-03-03T21:28:36.938Z,5.22
2019-03-03T21:31:07.351Z,4.62
2019-03-03T21:33:36.966Z,4.28
2019-03-03T21:36:06.676Z,3.75
2019-03-03T21:38:36.286Z,4.90
2019-03-03T21:41:05.998Z,3.65
2019-03-03T21:43:35.626Z,4.80
2019-03-03T21:46:05.268Z,4.62
2019-03-03T21:48:34.886Z,4.50
2019-03-03T21:51:04.594Z,4.10
2019-03-03T21:53:34.284Z,4.20
2019-03-03T21:56:04.093Z,3.75
2019-03-03T21:58:33.705Z,3.58
2019-03-03T22:01:03.350Z,3.55
2019-03-03T22:03:32.970Z,3.70
2019-03-03T22:06:02.614Z,3.92
2019-03-03T22:08:32.233Z,3.90
2019-03-03T22:11:01.887Z,3.80
2019-03-03T22:13:31.504Z,4.70
2019-03-03T22:16:01.143Z,4.55
2019-03-03T22:18:30.757Z,4.58
2019-03-03T22:21:00.406Z,5.35
2019-03-03T22:23:30.034Z,5.25
2019-03-03T22:25:59.679Z,5.28
2019-03-03T22:28:29.293Z,4.95
2019-03-03T22:30:58.937Z,5.03
2019-03-03T22:33:28.557Z,4.58
2019-03-03T22:35:58.210Z,4.25
2019-03-03T22:38:27.824Z,4.83
2019-03-03T22:40:57.476Z,4.90
2019-03-03T22:43:27.099Z,4.25
2019-03-03T22:45:56.751Z,4.40
2019-03-03T22:48:26.437Z,3.95
2019-03-03T22:50:56.145Z,3.90
2019-03-03T22:53:25.769Z,3.83
2019-03-03T22:55:55.415Z,3.80
2019-03-03T22:58:25.028Z,3.67
2019-03-03T23:01:01.618Z,3.95
2019-03-03T23:03:51.072Z,4.03
2019-03-03T23:06:33.004Z,4.00
2019-03-03T23:09:11.377Z,4.50
2019-03-03T23:11:46.869Z,4.55
2019-03-03T23:14:37.775Z,5.28
2019-03-03T23:17:25.630Z,5.00
2019-03-03T23:19:58.338Z,4.37
2019-03-03T23:22:50.761Z,5.33
2019-03-03T23:25:51.532Z,4.50
2019-03-03T23:28:21.719Z,5.00
2019-03-03T23:30:51.328Z,4.33
2019-03-03T23:33:20.985Z,3.80
2019-03-03T23:35:50.729Z,4.20
2019-03-03T23:38:20.377Z,3.85
2019-03-03T23:40:50.071Z,3.30
2019-03-03T23:43:19.776Z,3.72
2019-03-03T23:45:49.405Z,3.98
2019-03-03T23:48:19.041Z,5.15
2019-03-03T23:50:48.654Z,11.55
2019-03-03T23:53:18.313Z,8.43
2019-03-03T23:55:47.934Z,8.83
2019-03-03T23:58:17.594Z,6.50
